Impacts TAF Board INFO
FOR SITUATIONAL AWARENESS. NOT TO BE USED FOR FLIGHT PLANNING PURPOSES.
IDs:

KSTL - St Louis/Lambert Int, MO, US

Issued at 0931 UTC 24 Jan 2017
Updated at 1111 UTC 24 Jan 2017
Potential Impact None Slight Moderate High
Time1051Z 24/12Z 24/13Z 24/14Z 24/15Z 24/16Z 24/17Z 24/18Z 24/19Z 24/20Z 24/21Z 24/22Z 24/23Z 25/00Z
Type OBS PRVL PRVL PRVL PRVL PRVL PRVL PRVL PRVL PRVL PRVL PRVL PRVL PRVL
VIS 10 >6 >6 >6 >6 >6 >6 >6 >6 >6 >6 >6 >6 >6
CIG 20 15 15 15 25 25 25 25 25 130 130 130 130 130
Cover BKN OVC OVC OVC BKN BKN BKN BKN BKN BKN BKN BKN BKN BKN
FltCat MVFR MVFR MVFR MVFR MVFR MVFR MVFR MVFR MVFR VFR VFR VFR VFR VFR
WX -- -- -- -- -- -- -- -- -- -- -- -- -- --
WDir 340 VRB VRB VRB 140 140 140 140 140 130 130 130 130 130
WSpd 3 3 3 3 11 11 11 11 11 14 14 14 14 14
WGst -- -- -- -- 20 20 20 20 20 20 20 20 20 20

Raw TAF
KSTL 240931Z 2410/2512 VRB03KT P6SM OVC015
  FM241500 14011G20KT P6SM BKN025
  FM242000 13014G20KT P6SM BKN130
  FM250500 17010KT P6SM SCT250


Raw METAR
KSTL 241051Z 34003KT 10SM BKN020 04/M01 A2990 RMK AO2 SLP132 T00391006
KSTL 240951Z 00000KT 10SM OVC019 04/M01 A2990 RMK AO2 SLP129 T00391006
KSTL 240851Z 32003KT 10SM OVC018 04/M01 A2989 RMK AO2 SLP126 T00441006 55000

METAR Board
Radar Display
Forecast Discussion

FOR SITUATIONAL AWARENESS. NOT TO BE USED FOR FLIGHT PLANNING PURPOSES.

Page loaded:  11:11 UTC  |   03:11 AM Pacific  |   04:11 AM Mountain  |   05:11 AM Central  |   06:11 AM Eastern

 

ADVISORIES

FORECASTS

FORECASTS

OBSERVATIONS

USER TOOLS

ABOUT US